createdAt,value
2017-10-16T00:02:01.966Z,17.24
2017-10-16T00:04:30.347Z,16.93
2017-10-16T00:06:58.681Z,17.06
2017-10-16T00:09:27.034Z,17.11
2017-10-16T00:11:55.645Z,17.03
2017-10-16T00:14:23.983Z,17.00
2017-10-16T00:16:52.340Z,16.94
2017-10-16T00:19:20.706Z,16.86
2017-10-16T00:21:49.044Z,16.89
2017-10-16T00:24:17.390Z,16.89
2017-10-16T00:26:46.410Z,16.99
2017-10-16T00:29:14.807Z,16.98
2017-10-16T00:31:43.173Z,17.01
2017-10-16T00:34:12.613Z,17.12
2017-10-16T00:36:40.974Z,17.13
2017-10-16T00:39:10.104Z,17.18
2017-10-16T00:41:38.491Z,17.24
2017-10-16T00:44:06.849Z,17.22
2017-10-16T00:46:35.218Z,17.21
2017-10-16T00:49:03.686Z,17.25
2017-10-16T00:51:32.786Z,17.34
2017-10-16T00:54:01.119Z,17.32
2017-10-16T00:56:29.545Z,17.19
2017-10-16T00:58:57.930Z,17.18
2017-10-16T01:01:27.029Z,17.21
2017-10-16T01:03:56.185Z,17.26
2017-10-16T01:06:24.539Z,17.20
2017-10-16T01:08:52.882Z,17.17
2017-10-16T01:11:22.051Z,17.16
2017-10-16T01:13:50.393Z,17.03
2017-10-16T01:16:18.723Z,17.04
2017-10-16T01:18:48.338Z,17.22
2017-10-16T01:21:16.803Z,17.20
2017-10-16T01:23:45.161Z,17.17
2017-10-16T01:26:13.537Z,17.26
2017-10-16T01:28:41.890Z,17.28
2017-10-16T01:31:10.243Z,17.32
2017-10-16T01:33:39.679Z,17.30
2017-10-16T01:36:08.013Z,17.30
2017-10-16T01:38:36.341Z,17.26
2017-10-16T01:41:04.776Z,17.26
2017-10-16T01:43:33.878Z,17.19
2017-10-16T01:46:03.014Z,17.12
2017-10-16T01:48:31.376Z,17.19
2017-10-16T01:50:59.730Z,17.17
2017-10-16T01:53:28.854Z,17.27
2017-10-16T01:55:57.222Z,17.21
2017-10-16T01:58:26.334Z,17.10
2017-10-16T02:00:54.683Z,17.01
2017-10-16T02:03:23.984Z,17.22
2017-10-16T02:05:53.110Z,17.29
2017-10-16T02:08:21.456Z,17.17
2017-10-16T02:10:49.836Z,17.22
2017-10-16T02:13:19.251Z,17.07
2017-10-16T02:15:47.600Z,17.07
2017-10-16T02:18:16.737Z,17.09
2017-10-16T02:20:45.073Z,17.03
2017-10-16T02:23:13.395Z,17.07
2017-10-16T02:25:42.349Z,17.01
2017-10-16T02:28:10.781Z,16.98
2017-10-16T02:30:39.117Z,16.86
2017-10-16T02:33:07.482Z,16.90
2017-10-16T02:35:35.858Z,16.98
2017-10-16T02:38:04.211Z,17.09
2017-10-16T02:40:32.645Z,17.10
2017-10-16T02:43:01.748Z,17.02
2017-10-16T02:45:30.881Z,16.86
2017-10-16T02:47:59.383Z,16.77
2017-10-16T02:50:27.713Z,16.85
2017-10-16T02:52:56.087Z,16.73
2017-10-16T02:55:25.255Z,16.76
2017-10-16T02:57:53.602Z,16.79
2017-10-16T03:00:21.945Z,16.97
2017-10-16T03:02:51.119Z,16.94
2017-10-16T03:05:19.470Z,17.00
2017-10-16T03:07:47.830Z,16.95
2017-10-16T03:10:16.277Z,16.93
2017-10-16T03:12:46.349Z,16.92
2017-10-16T03:15:15.451Z,16.90
2017-10-16T03:17:43.805Z,16.89
2017-10-16T03:20:12.231Z,16.82
2017-10-16T03:22:41.353Z,16.86
2017-10-16T03:25:10.485Z,16.89
2017-10-16T03:27:38.830Z,16.76
2017-10-16T03:30:07.185Z,16.83
2017-10-16T03:32:36.402Z,16.80
2017-10-16T03:35:05.131Z,16.76
2017-10-16T03:37:33.532Z,16.80
2017-10-16T03:40:01.899Z,16.78
2017-10-16T03:42:30.724Z,16.66
2017-10-16T03:44:59.061Z,16.66
2017-10-16T03:47:27.430Z,16.45
2017-10-16T03:49:56.637Z,16.42
2017-10-16T03:52:24.974Z,16.47
2017-10-16T03:54:54.986Z,16.38
2017-10-16T03:57:24.078Z,16.31
2017-10-16T03:59:52.412Z,16.35
2017-10-16T04:02:20.782Z,16.34
2017-10-16T04:04:49.118Z,16.52
2017-10-16T04:07:18.226Z,16.47
2017-10-16T04:09:46.595Z,16.56
2017-10-16T04:12:15.719Z,16.48
2017-10-16T04:14:44.151Z,16.36
2017-10-16T04:17:12.795Z,16.27
2017-10-16T04:19:41.188Z,16.40
2017-10-16T04:22:09.597Z,16.37
2017-10-16T04:24:38.024Z,16.28
2017-10-16T04:27:06.410Z,16.22
2017-10-16T04:29:35.647Z,16.33
2017-10-16T04:32:04.015Z,16.28
2017-10-16T04:34:32.354Z,16.43
2017-10-16T04:37:00.837Z,16.45
2017-10-16T04:39:29.480Z,16.45
2017-10-16T04:41:57.858Z,16.25
2017-10-16T04:44:26.187Z,16.21
2017-10-16T04:46:54.559Z,16.34
2017-10-16T04:49:22.970Z,16.29
2017-10-16T04:51:51.349Z,16.45
2017-10-16T04:54:19.875Z,16.43
2017-10-16T04:56:49.144Z,16.44
2017-10-16T04:59:17.511Z,16.36
2017-10-16T05:01:46.262Z,16.34
2017-10-16T05:04:14.604Z,16.24
2017-10-16T05:06:42.970Z,16.22
2017-10-16T05:09:11.386Z,16.10
2017-10-16T05:11:39.811Z,16.08
2017-10-16T05:14:08.230Z,16.12
2017-10-16T05:16:36.674Z,16.15
2017-10-16T05:19:05.090Z,16.24
2017-10-16T05:21:34.283Z,16.15
2017-10-16T05:24:02.872Z,16.19
2017-10-16T05:26:31.351Z,16.16
2017-10-16T05:28:59.732Z,16.31
2017-10-16T05:31:28.106Z,16.10
2017-10-16T05:33:56.462Z,16.09
2017-10-16T05:36:24.862Z,16.00
2017-10-16T05:38:53.522Z,16.01
2017-10-16T05:41:21.879Z,15.96
2017-10-16T05:43:50.258Z,15.82
2017-10-16T16:01:01.475Z,24.21
2017-10-16T16:03:30.602Z,24.83
2017-10-16T16:05:58.983Z,25.09
2017-10-16T16:08:27.373Z,25.18
2017-10-16T16:10:55.738Z,25.21
2017-10-16T16:13:24.088Z,25.15
2017-10-16T16:15:53.219Z,25.11
2017-10-16T16:18:21.577Z,25.00
2017-10-16T16:20:49.927Z,24.79
2017-10-16T16:23:18.441Z,24.58
2017-10-16T16:25:47.553Z,24.46
2017-10-16T16:28:15.890Z,24.40
2017-10-16T16:30:44.279Z,24.30
2017-10-16T16:33:13.370Z,24.26
2017-10-16T16:35:42.508Z,24.25
2017-10-16T16:38:10.872Z,24.08
2017-10-16T16:40:39.224Z,23.94
2017-10-16T16:43:08.476Z,23.86
2017-10-16T16:45:36.910Z,23.68
2017-10-16T16:48:05.253Z,23.51
2017-10-16T16:50:33.623Z,23.32
2017-10-16T16:53:02.778Z,23.33
2017-10-16T16:55:31.204Z,23.13
2017-10-16T16:57:59.569Z,22.97
2017-10-16T17:00:27.927Z,23.02
2017-10-16T17:02:56.293Z,22.93
2017-10-16T17:05:24.649Z,22.97
2017-10-16T17:07:53.196Z,22.90
2017-10-16T17:10:21.543Z,22.88
2017-10-16T17:12:49.911Z,22.73
2017-10-16T17:15:19.085Z,22.89
2017-10-16T17:17:47.474Z,22.86
2017-10-16T17:20:15.817Z,22.89
2017-10-16T17:22:44.181Z,22.89
2017-10-16T17:25:12.522Z,22.88
2017-10-16T17:27:41.655Z,22.78
2017-10-16T17:30:10.174Z,22.73
2017-10-16T17:32:38.559Z,22.60
2017-10-16T17:35:06.913Z,22.66
2017-10-16T17:37:35.271Z,22.36
2017-10-16T17:40:03.966Z,22.42
2017-10-16T17:42:32.313Z,22.22
2017-10-16T17:45:01.474Z,22.27
2017-10-16T17:47:29.844Z,22.28
2017-10-16T17:49:58.197Z,22.16
2017-10-16T17:52:27.532Z,22.13
2017-10-16T17:54:55.894Z,22.15
2017-10-16T17:57:24.266Z,22.06
2017-10-16T17:59:52.658Z,22.07
2017-10-16T18:02:21.002Z,22.07
2017-10-16T18:04:49.358Z,21.98
2017-10-16T18:07:18.523Z,21.80
2017-10-16T18:09:46.858Z,21.95
2017-10-16T18:12:15.230Z,21.89
2017-10-16T18:14:44.742Z,21.77
2017-10-16T18:17:13.106Z,21.62
2017-10-16T18:19:42.217Z,21.52
2017-10-16T18:22:10.615Z,21.57
2017-10-16T18:24:38.975Z,21.53
2017-10-16T18:27:07.321Z,21.48
2017-10-16T18:29:35.731Z,21.60
2017-10-16T18:32:04.110Z,21.26
2017-10-16T18:34:32.451Z,21.04
2017-10-16T18:37:01.276Z,21.02
2017-10-16T18:39:30.387Z,20.92
2017-10-16T18:41:58.764Z,20.96
2017-10-16T18:44:27.119Z,21.12
2017-10-16T18:46:55.474Z,20.97
2017-10-16T18:49:23.804Z,21.04
2017-10-16T18:51:52.181Z,21.22
2017-10-16T18:54:20.621Z,21.11
2017-10-16T18:56:48.997Z,21.06
2017-10-16T18:59:18.265Z,20.87
2017-10-16T19:01:46.635Z,20.73
2017-10-16T19:04:15.037Z,20.97
2017-10-16T19:06:43.397Z,20.93
2017-10-16T19:09:11.743Z,21.03
2017-10-16T19:11:40.877Z,21.06
2017-10-16T19:14:09.344Z,21.09
2017-10-16T19:16:37.700Z,20.95
2017-10-16T19:19:06.816Z,20.91
2017-10-16T19:21:35.260Z,20.97
2017-10-16T19:24:03.653Z,20.85
2017-10-16T19:26:32.785Z,20.93
2017-10-16T19:29:01.934Z,20.83
2017-10-16T19:31:31.060Z,20.83
2017-10-16T19:33:59.434Z,20.71
2017-10-16T19:36:27.827Z,20.58
2017-10-16T19:38:56.192Z,20.47
2017-10-16T19:41:25.418Z,20.55
2017-10-16T19:43:53.958Z,20.47
2017-10-16T19:46:23.131Z,20.46
2017-10-16T19:48:51.486Z,20.53
2017-10-16T19:51:19.969Z,20.55
2017-10-16T19:53:48.317Z,20.48
2017-10-16T19:56:16.648Z,20.43
2017-10-16T19:58:45.815Z,20.56
2017-10-16T20:01:14.228Z,20.68
2017-10-16T20:03:42.597Z,20.49
2017-10-16T20:06:11.036Z,20.45
2017-10-16T20:08:40.179Z,20.33
2017-10-16T20:11:08.566Z,20.35
2017-10-16T20:13:36.937Z,20.23
2017-10-16T20:16:05.312Z,20.08
2017-10-16T20:18:33.650Z,20.23
2017-10-16T20:21:02.297Z,20.17
2017-10-16T20:23:30.741Z,20.37
2017-10-16T20:25:59.082Z,20.30
2017-10-16T20:28:28.425Z,20.38
2017-10-16T20:30:56.771Z,20.46
2017-10-16T20:33:26.173Z,20.36
2017-10-16T20:35:54.549Z,20.48
2017-10-16T20:38:22.914Z,20.38
2017-10-16T20:40:51.294Z,20.23
2017-10-16T20:43:19.873Z,20.24
2017-10-16T20:45:48.996Z,20.23
2017-10-16T20:48:17.371Z,20.09
2017-10-16T20:50:45.906Z,20.27
2017-10-16T20:53:14.262Z,20.27
2017-10-16T20:55:42.593Z,20.36
2017-10-16T20:58:10.987Z,20.41
2017-10-16T21:00:39.353Z,20.34
2017-10-16T21:03:08.453Z,20.34
2017-10-16T21:05:37.584Z,20.18
2017-10-16T21:08:05.960Z,20.29
2017-10-16T21:10:35.083Z,20.29
2017-10-16T21:13:03.813Z,20.08
2017-10-16T21:15:32.194Z,20.20
2017-10-16T21:18:00.564Z,20.21
2017-10-16T21:20:28.939Z,20.24
2017-10-16T21:22:58.138Z,20.27
2017-10-16T21:25:27.250Z,20.09
2017-10-16T21:27:55.656Z,19.89
2017-10-16T21:30:24.009Z,19.91
2017-10-16T21:32:52.387Z,19.89
2017-10-16T21:35:20.953Z,20.00
2017-10-16T21:37:49.323Z,19.99
2017-10-16T21:40:17.677Z,20.04
2017-10-16T21:42:46.706Z,19.94
2017-10-16T21:45:16.770Z,20.08
2017-10-16T21:47:45.105Z,19.86
2017-10-16T21:50:14.230Z,19.96
2017-10-16T21:52:42.581Z,20.08
2017-10-16T21:55:11.719Z,20.14
2017-10-16T21:57:40.604Z,20.01
2017-10-16T22:00:08.957Z,19.98
2017-10-16T22:02:38.083Z,20.05
2017-10-16T22:05:07.244Z,20.11
2017-10-16T22:07:35.598Z,20.03
2017-10-16T22:10:04.275Z,20.20
2017-10-16T22:12:32.662Z,20.08
2017-10-16T22:15:01.043Z,20.15
2017-10-16T22:17:29.403Z,20.10
2017-10-16T22:19:58.095Z,20.09
2017-10-16T22:22:26.436Z,20.11
2017-10-16T22:24:54.802Z,20.08
2017-10-16T22:27:24.560Z,20.18
2017-10-16T22:29:52.897Z,20.15
2017-10-16T22:32:21.271Z,20.14
2017-10-16T22:34:50.422Z,20.16
2017-10-16T22:37:18.786Z,20.20
2017-10-16T22:39:47.142Z,20.20
2017-10-16T22:42:15.583Z,20.18
2017-10-16T22:44:43.946Z,20.13
2017-10-16T22:47:12.318Z,20.29
2017-10-16T22:49:40.693Z,20.30
2017-10-16T22:52:09.024Z,20.31
2017-10-16T22:54:47.314Z,20.36
2017-10-16T22:57:15.692Z,20.38
2017-10-16T22:59:44.829Z,20.39
2017-10-16T23:02:13.334Z,20.43
2017-10-16T23:04:42.444Z,20.50
2017-10-16T23:07:10.835Z,20.40
2017-10-16T23:09:39.236Z,20.29
2017-10-16T23:12:08.360Z,20.35
2017-10-16T23:14:36.716Z,20.39
2017-10-16T23:17:05.852Z,20.45
2017-10-16T23:19:34.210Z,20.44
2017-10-16T23:22:02.555Z,20.41
2017-10-16T23:24:31.020Z,20.48
2017-10-16T23:26:59.686Z,20.35
2017-10-16T23:29:28.040Z,20.42
2017-10-16T23:31:56.400Z,20.44
2017-10-16T23:34:25.562Z,20.35
2017-10-16T23:36:53.898Z,20.27
2017-10-16T23:39:22.261Z,20.21
2017-10-16T23:41:51.370Z,20.15
2017-10-16T23:44:19.704Z,20.31
2017-10-16T23:46:48.228Z,20.22
2017-10-16T23:49:16.550Z,20.17
2017-10-16T23:51:44.890Z,20.00
2017-10-16T23:54:13.257Z,20.10
2017-10-16T23:56:42.358Z,20.36
2017-10-16T23:59:10.702Z,20.29
